Time;durP1;ratioP1;P1;durP2;ratioP2;P2;SDS_P1;SDS_P2;PMS_P1;PMS_P2;Temp;Humidity;BMP_temperature;BMP_pressure;BME280_temperature;BME280_humidity;BME280_pressure;Samples;Min_cycle;Max_cycle;Signal;HPM_P1;HPM_P2
2021/06/17 00:00:29;;;;;;;2.69;1.63;;;;;;;21.58;66.34;100353.48;474029;111;924531;-64
2021/06/17 00:01:33;;;;;;;1.63;1.49;;;;;;;21.59;66.37;100357.91;473514;111;923953;-63
2021/06/17 00:02:37;;;;;;;1.61;1.40;;;;;;;21.58;66.42;100356.25;474625;111;926488;-63
2021/06/17 00:03:41;;;;;;;1.94;1.42;;;;;;;21.59;66.37;100358.75;474697;111;922415;-65
2021/06/17 00:04:45;;;;;;;6.09;1.64;;;;;;;21.59;66.35;100357.91;474509;111;922895;-63
2021/06/17 00:05:49;;;;;;;2.19;1.61;;;;;;;21.58;66.36;100350.70;474256;111;922904;-64
2021/06/17 00:06:52;;;;;;;1.60;1.44;;;;;;;21.59;66.36;100352.36;474382;111;922543;-64
2021/06/17 00:07:58;;;;;;;3.32;1.77;;;;;;;21.58;66.46;100353.48;474371;111;922446;-64
2021/06/17 00:09:02;;;;;;;2.07;1.41;;;;;;;21.56;66.45;100350.16;474210;111;922418;-64
2021/06/17 00:10:10;;;;;;;3.49;1.43;;;;;;;21.53;66.51;100357.14;473104;111;925489;-65
2021/06/17 00:11:17;;;;;;;2.05;1.67;;;;;;;21.51;66.54;100345.50;465263;114;922593;-64
2021/06/17 00:12:27;;;;;;;1.99;1.35;;;;;;;21.50;66.62;100354.13;466989;111;926702;-63
2021/06/17 00:13:36;;;;;;;2.58;1.52;;;;;;;21.45;66.69;100349.44;475165;111;922427;-62
2021/06/17 00:14:40;;;;;;;2.04;1.74;;;;;;;21.44;66.77;100355.30;474176;111;923814;-66
2021/06/17 00:15:48;;;;;;;3.14;2.36;;;;;;;21.40;66.89;100343.94;474810;111;922193;-65
2021/06/17 00:16:53;;;;;;;2.87;1.56;;;;;;;21.37;67.01;100355.63;472365;111;930065;-64
2021/06/17 00:17:58;;;;;;;1.92;1.54;;;;;;;21.34;67.19;100355.37;467648;112;922388;-65
2021/06/17 00:19:02;;;;;;;2.94;1.71;;;;;;;21.31;67.26;100358.73;467638;113;922631;-64
2021/06/17 00:20:07;;;;;;;1.98;1.52;;;;;;;21.29;67.41;100359.02;468000;113;922199;-63
2021/06/17 00:21:11;;;;;;;1.82;1.63;;;;;;;21.27;67.48;100364.05;466698;113;923609;-64
2021/06/17 00:22:16;;;;;;;5.94;1.79;;;;;;;21.27;67.58;100357.67;467617;113;923105;-64
2021/06/17 00:23:20;;;;;;;5.15;1.79;;;;;;;21.29;67.62;100358.19;467363;113;922638;-65
2021/06/17 00:24:25;;;;;;;2.62;1.57;;;;;;;21.27;67.62;100350.19;467090;113;931689;-63
2021/06/17 00:25:30;;;;;;;2.84;1.60;;;;;;;21.26;67.66;100348.53;466377;113;925860;-64
2021/06/17 00:26:36;;;;;;;2.23;1.78;;;;;;;21.26;67.69;100342.15;466448;113;923904;-64
2021/06/17 00:27:41;;;;;;;1.67;1.39;;;;;;;21.26;67.71;100342.15;466806;113;924027;-64
2021/06/17 00:28:45;;;;;;;1.54;1.44;;;;;;;21.26;67.73;100342.98;467067;112;923932;-64
2021/06/17 00:29:49;;;;;;;1.99;1.40;;;;;;;21.28;67.73;100339.92;465901;112;930114;-64
2021/06/17 00:30:54;;;;;;;2.66;1.48;;;;;;;21.29;67.71;100339.61;467383;113;924427;-64
2021/06/17 00:31:58;;;;;;;2.00;1.90;;;;;;;21.30;67.70;100338.50;466549;112;930183;-63
2021/06/17 00:33:03;;;;;;;1.99;1.54;;;;;;;21.27;67.75;100332.72;466487;113;925751;-64
2021/06/17 00:34:10;;;;;;;2.33;1.72;;;;;;;21.25;67.78;100341.31;466921;112;924874;-61
2021/06/17 00:35:14;;;;;;;1.72;1.62;;;;;;;21.23;67.87;100335.22;467577;113;922492;-62
2021/06/17 00:36:21;;;;;;;2.50;1.91;;;;;;;21.21;67.99;100340.25;466991;113;923998;-63
2021/06/17 00:37:25;;;;;;;2.19;1.53;;;;;;;21.19;68.02;100334.99;467430;113;922481;-62
2021/06/17 00:38:28;;;;;;;3.12;1.38;;;;;;;21.19;68.11;100334.16;467201;113;925759;-63
2021/06/17 00:39:33;;;;;;;3.28;1.79;;;;;;;21.19;68.22;100326.67;466574;113;924507;-65
2021/06/17 00:40:40;;;;;;;3.52;1.73;;;;;;;21.20;68.24;100333.88;465737;113;924538;-64
2021/06/17 00:41:44;;;;;;;4.19;1.92;;;;;;;21.20;68.23;100336.65;466408;112;924012;-64
2021/06/17 00:42:49;;;;;;;1.63;1.38;;;;;;;21.22;68.25;100339.14;465812;112;931846;-64
2021/06/17 00:43:53;;;;;;;3.44;2.03;;;;;;;21.23;68.26;100338.00;467379;113;923990;-64
2021/06/17 00:44:57;;;;;;;4.70;1.60;;;;;;;21.24;68.26;100345.20;466518;112;924037;-63
2021/06/17 00:46:02;;;;;;;1.68;1.58;;;;;;;21.26;68.31;100336.60;458756;115;925810;-61
2021/06/17 00:47:07;;;;;;;2.26;1.64;;;;;;;21.27;68.30;100338.27;459087;113;931892;-65
2021/06/17 00:48:14;;;;;;;4.86;1.68;;;;;;;21.28;68.26;100342.70;466012;113;932674;-63
2021/06/17 00:49:18;;;;;;;2.44;1.48;;;;;;;21.26;68.30;100334.66;466659;113;927321;-63
2021/06/17 00:50:25;;;;;;;2.28;1.91;;;;;;;21.25;68.32;100340.48;466683;112;924471;-64
2021/06/17 00:51:29;;;;;;;3.54;1.54;;;;;;;21.24;68.42;100336.88;466150;113;931815;-66
2021/06/17 00:52:34;;;;;;;2.67;1.65;;;;;;;21.23;68.46;100346.31;466438;113;922910;-62
2021/06/17 00:53:38;;;;;;;2.58;1.68;;;;;;;21.22;68.48;100347.46;466172;113;926483;-64
2021/06/17 00:54:42;;;;;;;3.48;1.69;;;;;;;21.23;68.56;100351.86;467509;112;931734;-63
2021/06/17 00:55:48;;;;;;;2.66;1.64;;;;;;;21.23;68.60;100346.31;466917;113;925810;-63
2021/06/17 00:56:51;;;;;;;2.34;1.64;;;;;;;21.25;68.58;100348.81;466693;113;923929;-65
2021/06/17 00:57:56;;;;;;;2.59;1.89;;;;;;;21.26;68.51;100353.23;466214;112;925511;-63
2021/06/17 00:59:00;;;;;;;3.42;1.97;;;;;;;21.25;68.53;100357.12;467223;113;924034;-64
2021/06/17 01:00:07;;;;;;;2.40;1.61;;;;;;;21.23;68.52;100346.31;466863;113;925329;-63
2021/06/17 01:01:12;;;;;;;2.85;1.73;;;;;;;21.21;68.55;100354.12;466084;112;923069;-63
2021/06/17 01:02:16;;;;;;;2.24;1.68;;;;;;;21.20;68.64;100356.06;466790;113;924502;-63
2021/06/17 01:03:21;;;;;;;3.48;1.78;;;;;;;21.21;68.76;100363.27;467894;113;922843;-64
2021/06/17 01:04:26;;;;;;;2.12;1.81;;;;;;;21.23;68.79;100360.18;466958;112;930362;-62
2021/06/17 01:05:30;;;;;;;2.01;1.64;;;;;;;21.25;68.79;100360.73;466048;113;922527;-65
2021/06/17 01:06:34;;;;;;;2.01;1.79;;;;;;;21.29;68.74;100363.73;466805;113;922853;-64
2021/06/17 01:07:50;;;;;;;5.31;1.92;;;;;;;21.31;68.63;100361.52;467371;112;922587;-65
2021/06/17 01:09:00;;;;;;;4.34;1.88;;;;;;;21.31;68.55;100361.52;467036;113;922490;-64
2021/06/17 01:10:25;;;;;;;3.02;1.93;;;;;;;21.31;68.56;100367.06;465927;113;922485;-64
2021/06/17 01:11:42;;;;;;;2.71;1.82;;;;;;;21.31;68.65;100362.34;466554;113;922558;-64
2021/06/17 01:12:55;;;;;;;2.63;1.75;;;;;;;21.32;68.60;100368.72;466429;113;923032;-63
2021/06/17 01:14:04;;;;;;;2.77;1.87;;;;;;;21.32;68.63;100366.78;467405;113;922609;-64
2021/06/17 01:15:12;;;;;;;4.56;2.11;;;;;;;21.33;68.71;100378.70;466840;112;922518;-64
2021/06/17 01:16:24;;;;;;;2.05;1.87;;;;;;;21.34;68.68;100370.06;467507;113;922589;-64
2021/06/17 01:17:31;;;;;;;3.48;1.97;;;;;;;21.36;68.63;100376.16;454981;114;923275;-65
2021/06/17 01:18:38;;;;;;;2.07;1.87;;;;;;;21.37;68.58;100369.50;456967;113;922988;-62
2021/06/17 01:19:54;;;;;;;1.60;1.50;;;;;;;21.39;68.59;100369.22;460235;114;926022;-64
2021/06/17 01:21:00;;;;;;;2.12;1.78;;;;;;;21.40;68.52;100380.00;461356;114;924065;-63
2021/06/17 01:22:14;;;;;;;2.83;1.73;;;;;;;21.42;68.37;100383.33;461008;114;924111;-64
2021/06/17 01:23:47;;;;;;;3.43;2.02;;;;;;;21.42;68.34;100376.95;460814;113;924016;-63
2021/06/17 01:25:13;;;;;;;2.00;1.86;;;;;;;21.42;68.31;100382.49;460384;114;923242;-64
2021/06/17 01:26:42;;;;;;;2.47;1.74;;;;;;;21.42;68.27;100371.40;461535;114;922549;-64
2021/06/17 01:28:09;;;;;;;3.20;2.07;;;;;;;21.40;68.26;100377.23;460922;112;922490;-62
2021/06/17 01:29:17;;;;;;;3.81;2.06;;;;;;;21.39;68.32;100363.67;439885;118;925042;-63
2021/06/17 01:30:24;;;;;;;3.63;1.84;;;;;;;21.37;68.39;100365.90;452506;112;925329;-62
2021/06/17 01:31:32;;;;;;;2.09;1.77;;;;;;;21.37;68.42;100366.73;461029;114;924749;-65
2021/06/17 01:32:41;;;;;;;3.19;2.33;;;;;;;21.37;68.40;100355.63;460858;114;923863;-63
2021/06/17 01:33:48;;;;;;;2.19;1.76;;;;;;;21.37;68.37;100355.63;460712;114;924052;-63
2021/06/17 01:34:54;;;;;;;2.50;1.84;;;;;;;21.36;68.42;100364.23;454389;114;924490;-63
2021/06/17 01:36:04;;;;;;;1.92;1.57;;;;;;;21.34;68.44;100367.30;453499;115;925376;-64
2021/06/17 01:37:11;;;;;;;2.44;1.84;;;;;;;21.32;68.54;100364.00;452649;115;923825;-63
2021/06/17 01:38:18;;;;;;;2.18;1.98;;;;;;;21.31;68.67;100361.52;459715;112;923771;-60
2021/06/17 01:39:24;;;;;;;3.30;1.97;;;;;;;21.32;68.68;100363.17;461238;114;923721;-65
2021/06/17 01:40:30;;;;;;;2.86;2.16;;;;;;;21.32;68.59;100375.09;452422;116;923181;-63
2021/06/17 01:41:37;;;;;;;3.26;1.79;;;;;;;21.29;68.62;100369.28;453595;114;922918;-64
2021/06/17 01:42:44;;;;;;;3.07;1.79;;;;;;;21.24;68.67;100361.84;460052;114;922459;-64
2021/06/17 01:43:49;;;;;;;3.11;1.76;;;;;;;21.23;68.73;100362.16;460455;114;922779;-64
2021/06/17 01:44:56;;;;;;;1.96;1.71;;;;;;;21.21;68.80;100360.50;462686;114;924006;-63
2021/06/17 01:46:02;;;;;;;2.43;1.77;;;;;;;21.19;68.88;100359.95;461868;114;932387;-63
2021/06/17 01:47:07;;;;;;;3.26;1.69;;;;;;;21.20;68.95;100360.78;461122;114;923995;-64
2021/06/17 01:48:12;;;;;;;3.08;2.64;;;;;;;21.20;68.96;100356.06;460237;114;924148;-63
2021/06/17 01:49:19;;;;;;;3.28;2.02;;;;;;;21.22;68.90;100364.09;461066;114;924050;-64
2021/06/17 01:50:26;;;;;;;1.91;1.72;;;;;;;21.23;68.94;100365.73;459631;114;923980;-63
2021/06/17 01:51:31;;;;;;;2.82;2.11;;;;;;;21.23;68.92;100363.78;460695;114;923940;-62
2021/06/17 01:52:35;;;;;;;4.07;1.72;;;;;;;21.24;68.83;100364.62;454955;115;924095;-63
2021/06/17 01:53:40;;;;;;;4.43;1.88;;;;;;;21.25;68.83;100363.50;462435;114;927943;-64
2021/06/17 01:54:45;;;;;;;2.09;1.71;;;;;;;21.26;68.86;100367.11;461484;112;925591;-63
2021/06/17 01:55:51;;;;;;;1.62;1.52;;;;;;;21.26;68.88;100367.94;460860;114;931864;-64
2021/06/17 01:56:58;;;;;;;2.76;1.48;;;;;;;21.28;68.83;100371.23;461337;114;922875;-64
2021/06/17 01:58:05;;;;;;;2.87;1.96;;;;;;;21.30;68.82;100377.33;461285;114;924239;-62
2021/06/17 01:59:10;;;;;;;3.39;1.94;;;;;;;21.32;68.79;100369.55;462189;114;924210;-62
2021/06/17 02:00:15;;;;;;;2.39;1.58;;;;;;;21.33;68.73;100365.66;455104;115;926673;-64
2021/06/17 02:01:23;;;;;;;2.86;1.70;;;;;;;21.35;68.64;100368.95;461874;112;922455;-64
2021/06/17 02:02:28;;;;;;;2.07;1.84;;;;;;;21.37;68.62;100365.90;460403;114;922672;-62
2021/06/17 02:03:33;;;;;;;2.10;1.94;;;;;;;21.39;68.53;100371.99;461839;114;922581;-64
2021/06/17 02:04:39;;;;;;;3.35;1.82;;;;;;;21.40;68.45;100371.68;459789;113;922850;-63
2021/06/17 02:05:44;;;;;;;1.88;1.78;;;;;;;21.41;68.39;100372.52;454210;115;922840;-63
2021/06/17 02:06:48;;;;;;;3.76;1.89;;;;;;;21.40;68.40;100382.77;462061;113;922432;-62
2021/06/17 02:07:52;;;;;;;2.93;1.70;;;;;;;21.40;68.37;100376.39;453703;116;930267;-62
2021/06/17 02:08:58;;;;;;;3.30;2.04;;;;;;;21.40;68.43;100381.95;454374;114;922452;-62
2021/06/17 02:10:03;;;;;;;2.86;1.78;;;;;;;21.39;68.34;100369.22;460232;114;930280;-63
2021/06/17 02:11:07;;;;;;;2.99;2.21;;;;;;;21.40;68.26;100381.95;454037;115;922973;-64
2021/06/17 02:12:11;;;;;;;2.67;1.88;;;;;;;21.40;68.29;100368.08;444326;119;922538;-61
2021/06/17 02:13:17;;;;;;;1.91;1.59;;;;;;;21.39;68.23;100363.67;460625;114;922801;-62
2021/06/17 02:14:24;;;;;;;2.02;1.85;;;;;;;21.37;68.26;100372.28;462021;114;922476;-64
2021/06/17 02:15:31;;;;;;;3.56;1.99;;;;;;;21.35;68.28;100368.12;460793;114;922508;-62
2021/06/17 02:16:38;;;;;;;2.74;2.40;;;;;;;21.33;68.36;100371.21;454684;115;922511;-63
2021/06/17 02:17:44;;;;;;;2.85;2.00;;;;;;;21.33;68.47;100368.44;455659;114;922836;-64
2021/06/17 02:18:50;;;;;;;5.61;3.99;;;;;;;21.33;68.42;100362.89;457825;114;924469;-63
2021/06/17 02:19:54;;;;;;;2.32;2.12;;;;;;;21.33;68.46;100353.73;459757;114;922544;-63
2021/06/17 02:20:58;;;;;;;2.29;2.11;;;;;;;21.34;68.47;100356.20;447923;116;925003;-63
2021/06/17 02:22:04;;;;;;;2.08;1.90;;;;;;;21.34;68.43;100356.20;451920;116;924494;-64
2021/06/17 02:23:13;;;;;;;2.37;1.88;;;;;;;21.36;68.38;100350.37;454814;116;923299;-64
2021/06/17 02:24:19;;;;;;;3.09;1.86;;;;;;;21.36;68.38;100347.59;471712;112;924059;-63
2021/06/17 02:25:24;;;;;;;3.26;2.06;;;;;;;21.37;68.28;100357.58;472151;112;927067;-63
2021/06/17 02:26:31;;;;;;;1.64;1.54;;;;;;;21.37;68.27;100352.03;471860;112;926623;-63
2021/06/17 02:27:37;;;;;;;2.26;1.85;;;;;;;21.37;68.29;100352.03;471961;112;924636;-64
2021/06/17 02:28:42;;;;;;;2.35;2.15;;;;;;;21.37;68.27;100355.63;472073;111;924015;-63
2021/06/17 02:29:48;;;;;;;3.11;1.97;;;;;;;21.39;68.31;100358.13;472280;112;924001;-63
2021/06/17 02:30:56;;;;;;;3.08;1.86;;;;;;;21.41;68.19;100365.02;472428;112;924090;-63
2021/06/17 02:32:03;;;;;;;3.00;1.59;;;;;;;21.42;68.09;100360.30;471449;112;923947;-61
2021/06/17 02:33:09;;;;;;;1.94;1.54;;;;;;;21.44;67.99;100356.13;471339;112;923997;-64
2021/06/17 02:34:15;;;;;;;1.75;1.65;;;;;;;21.45;67.89;100354.98;471108;112;925261;-61
2021/06/17 02:35:22;;;;;;;3.39;1.83;;;;;;;21.46;67.88;100351.09;471409;112;924660;-63
2021/06/17 02:36:28;;;;;;;3.90;1.80;;;;;;;21.46;67.91;100348.33;471654;112;924029;-61
2021/06/17 02:37:34;;;;;;;2.45;1.64;;;;;;;21.48;67.83;100353.59;472537;112;924099;-62
2021/06/17 02:38:41;;;;;;;2.71;1.72;;;;;;;21.48;67.82;100356.36;465146;113;924070;-64
2021/06/17 02:39:49;;;;;;;2.49;1.93;;;;;;;21.48;67.69;100353.59;464949;112;924027;-65
2021/06/17 02:40:57;;;;;;;2.26;1.62;;;;;;;21.49;67.72;100358.02;471716;112;924046;-63
2021/06/17 02:42:04;;;;;;;4.27;1.84;;;;;;;21.50;67.69;100360.48;472412;111;924524;-65
2021/06/17 02:43:11;;;;;;;3.76;1.77;;;;;;;21.51;67.51;100358.53;471025;112;924789;-65
2021/06/17 02:44:17;;;;;;;2.21;1.94;;;;;;;21.51;67.52;100362.14;472290;112;922526;-65
2021/06/17 02:45:27;;;;;;;2.86;1.59;;;;;;;21.53;67.53;100367.41;465654;112;925287;-64
2021/06/17 02:46:31;;;;;;;3.68;1.65;;;;;;;21.54;67.48;100374.61;465429;111;924053;-64
2021/06/17 02:47:35;;;;;;;2.56;2.02;;;;;;;21.55;67.43;100370.73;472141;112;931731;-62
2021/06/17 02:48:39;;;;;;;1.92;1.60;;;;;;;21.57;67.29;100371.23;471990;112;931799;-61
2021/06/17 02:49:44;;;;;;;1.86;1.58;;;;;;;21.56;67.33;100378.73;470037;112;924719;-63
2021/06/17 02:50:49;;;;;;;3.78;1.81;;;;;;;21.59;67.34;100382.89;472444;112;922684;-63
2021/06/17 02:51:52;;;;;;;2.61;1.95;;;;;;;21.61;67.25;100377.88;471994;112;932699;-62
2021/06/17 02:52:56;;;;;;;2.25;1.76;;;;;;;21.62;67.19;100385.89;470814;112;922539;-63
2021/06/17 02:54:01;;;;;;;2.57;2.31;;;;;;;21.65;67.09;100387.27;472531;111;924817;-64
2021/06/17 02:55:05;;;;;;;2.32;2.02;;;;;;;21.65;66.99;100384.50;471826;112;922672;-65
2021/06/17 02:56:13;;;;;;;1.83;1.73;;;;;;;21.65;67.00;100381.72;472397;112;924473;-64
2021/06/17 02:57:27;;;;;;;4.06;3.62;;;;;;;21.67;66.97;100381.44;472004;112;922626;-64
2021/06/17 02:58:55;;;;;;;4.28;2.41;;;;;;;21.67;66.97;100385.01;470961;112;923379;-63
2021/06/17 03:00:11;;;;;;;2.59;2.39;;;;;;;21.68;66.85;100383.89;472722;112;922994;-64
2021/06/17 03:01:35;;;;;;;2.46;2.14;;;;;;;21.68;66.74;100385.84;471756;112;922524;-64
2021/06/17 03:03:03;;;;;;;2.22;2.02;;;;;;;21.68;66.78;100386.67;471705;112;922628;-66
2021/06/17 03:04:11;;;;;;;3.21;1.85;;;;;;;21.68;66.74;100381.12;472202;112;922454;-66
2021/06/17 03:05:27;;;;;;;5.63;2.12;;;;;;;21.67;66.80;100387.78;472056;112;922493;-65
2021/06/17 03:06:42;;;;;;;3.02;2.08;;;;;;;21.69;66.78;100393.05;471985;112;922549;-64
2021/06/17 03:08:00;;;;;;;2.78;2.03;;;;;;;21.69;66.77;100393.88;471988;112;923073;-65
2021/06/17 03:09:07;;;;;;;4.59;1.81;;;;;;;21.72;66.83;100384.16;459956;114;923281;-66
2021/06/17 03:10:21;;;;;;;2.09;1.70;;;;;;;21.86;66.67;100385.93;475710;110;948330;-65
2021/06/17 03:11:29;;;;;;;3.02;2.01;;;;;;;21.77;66.55;100389.66;466655;112;922460;-66
2021/06/17 03:12:35;;;;;;;3.23;1.72;;;;;;;21.78;66.54;100394.05;462193;113;922854;-65
2021/06/17 03:13:42;;;;;;;2.90;1.78;;;;;;;21.79;66.55;100387.39;464369;114;922569;-67
2021/06/17 03:14:46;;;;;;;3.28;1.82;;;;;;;21.81;66.53;100394.31;460356;114;922761;-65
2021/06/17 03:15:51;;;;;;;2.36;1.75;;;;;;;21.84;66.51;100393.71;462858;114;924829;-63
2021/06/17 03:16:58;;;;;;;4.62;1.78;;;;;;;21.88;66.51;100399.52;463164;114;924576;-63
2021/06/17 03:18:04;;;;;;;8.46;2.24;;;;;;;21.94;66.45;100399.19;459766;114;925145;-63
2021/06/17 03:19:11;;;;;;;3.64;2.05;;;;;;;21.97;66.32;100398.61;464126;114;924064;-63
2021/06/17 03:20:18;;;;;;;2.39;2.11;;;;;;;22.01;66.15;100399.67;463570;114;922998;-63
2021/06/17 03:21:23;;;;;;;3.07;2.03;;;;;;;22.05;66.08;100403.50;463028;114;923990;-64
2021/06/17 03:22:29;;;;;;;2.18;1.88;;;;;;;22.09;65.93;100400.15;462278;114;923268;-64
2021/06/17 03:23:35;;;;;;;2.47;1.80;;;;;;;22.13;65.75;100393.70;463089;114;926184;-64
2021/06/17 03:24:41;;;;;;;2.64;1.74;;;;;;;22.17;65.53;100399.48;463020;114;924033;-61
2021/06/17 03:25:48;;;;;;;2.40;2.09;;;;;;;22.18;65.47;100395.59;463987;114;927489;-64
2021/06/17 03:26:56;;;;;;;2.96;1.73;;;;;;;22.20;65.44;100396.96;463890;114;924082;-65
2021/06/17 03:28:01;;;;;;;3.72;1.89;;;;;;;22.24;65.38;100397.19;461841;113;926125;-64
2021/06/17 03:29:07;;;;;;;3.52;1.86;;;;;;;22.26;65.21;100395.78;462277;113;924574;-62
2021/06/17 03:30:14;;;;;;;3.83;1.67;;;;;;;22.28;65.18;100387.95;462413;114;933823;-62
2021/06/17 03:31:18;;;;;;;2.06;1.71;;;;;;;22.31;65.18;100392.94;454695;115;926930;-64
2021/06/17 03:32:26;;;;;;;2.49;1.86;;;;;;;22.33;64.94;100389.83;453850;114;924118;-65
2021/06/17 03:33:33;;;;;;;3.28;1.78;;;;;;;22.34;64.86;100385.94;464724;114;931976;-62
2021/06/17 03:34:39;;;;;;;4.29;1.71;;;;;;;22.34;64.68;100392.33;462654;114;922815;-63
2021/06/17 03:35:46;;;;;;;3.08;2.16;;;;;;;22.35;64.73;100399.55;463091;114;925839;-65
2021/06/17 03:36:52;;;;;;;6.52;2.36;;;;;;;22.35;64.84;100390.38;463005;113;924490;-63
2021/06/17 03:37:57;;;;;;;3.06;1.87;;;;;;;22.36;64.78;100387.31;460942;114;924086;-62
2021/06/17 03:39:04;;;;;;;3.72;2.19;;;;;;;22.39;64.65;100391.42;463040;113;924215;-64
2021/06/17 03:40:13;;;;;;;2.62;1.86;;;;;;;22.40;64.64;100396.70;463073;113;924077;-64
2021/06/17 03:41:19;;;;;;;2.38;1.71;;;;;;;22.42;64.59;100394.45;460942;114;924871;-63
2021/06/17 03:42:24;;;;;;;2.55;1.84;;;;;;;22.45;64.47;100395.80;462769;114;924753;-63
2021/06/17 03:43:29;;;;;;;3.83;1.98;;;;;;;22.47;64.43;100388.00;463354;113;924188;-63
2021/06/17 03:44:35;;;;;;;2.15;1.91;;;;;;;22.50;64.33;100404.06;461432;113;925536;-62
2021/06/17 03:45:42;;;;;;;2.36;2.12;;;;;;;22.51;64.31;100402.94;463609;114;924909;-63
2021/06/17 03:46:49;;;;;;;2.22;1.82;;;;;;;22.53;64.33;100399.87;461409;113;924243;-62
2021/06/17 03:47:54;;;;;;;1.94;1.83;;;;;;;22.54;64.35;100393.20;463444;114;924006;-63
2021/06/17 03:49:02;;;;;;;3.94;2.24;;;;;;;22.57;64.07;100387.03;461941;114;924707;-65
2021/06/17 03:50:08;;;;;;;2.94;1.74;;;;;;;22.59;64.11;100393.13;454798;115;924104;-64
2021/06/17 03:51:14;;;;;;;3.49;1.96;;;;;;;22.61;64.12;100399.19;454959;114;924111;-61
2021/06/17 03:52:20;;;;;;;2.91;2.07;;;;;;;22.64;64.09;100395.83;451022;116;925708;-63
2021/06/17 03:53:26;;;;;;;2.61;1.98;;;;;;;22.66;64.07;100393.59;454705;114;924737;-64
2021/06/17 03:54:32;;;;;;;3.21;2.16;;;;;;;22.69;64.08;100399.36;461894;113;925386;-62
2021/06/17 03:55:39;;;;;;;4.67;2.48;;;;;;;22.72;64.06;100397.95;461985;114;926655;-60
2021/06/17 03:56:44;;;;;;;2.49;1.78;;;;;;;22.73;63.91;100403.22;464472;113;924012;-63
2021/06/17 03:57:52;;;;;;;4.11;1.99;;;;;;;22.75;63.86;100402.94;463273;113;925845;-64
2021/06/17 03:58:56;;;;;;;3.14;2.02;;;;;;;22.77;63.83;100400.69;462275;114;922542;-62
2021/06/17 04:00:00;;;;;;;4.05;2.12;;;;;;;22.78;63.74;100405.92;462575;114;925725;-64
2021/06/17 04:01:06;;;;;;;4.08;1.98;;;;;;;22.79;63.69;100406.76;462346;114;922676;-63
2021/06/17 04:02:11;;;;;;;3.42;1.78;;;;;;;22.81;63.71;100410.91;462041;114;923184;-64
2021/06/17 04:03:18;;;;;;;2.93;2.52;;;;;;;22.84;63.59;100415.85;461480;114;924395;-62
2021/06/17 04:04:24;;;;;;;4.18;2.30;;;;;;;22.88;63.51;100423.61;462277;113;922847;-63
2021/06/17 04:05:29;;;;;;;3.71;2.17;;;;;;;22.92;63.48;100428.27;462722;113;922558;-62
2021/06/17 04:06:38;;;;;;;2.92;1.87;;;;;;;22.95;63.43;100430.42;464667;113;922860;-63
2021/06/17 04:07:44;;;;;;;3.57;2.20;;;;;;;22.98;63.26;100429.84;461580;113;922570;-64
2021/06/17 04:08:51;;;;;;;6.88;2.27;;;;;;;23.02;63.19;100441.19;463150;114;923162;-62
2021/06/17 04:09:59;;;;;;;3.99;2.08;;;;;;;23.04;63.02;100438.94;461382;114;924457;-60
2021/06/17 04:11:06;;;;;;;3.03;1.93;;;;;;;23.07;62.90;100441.10;459074;114;922795;-64
2021/06/17 04:12:13;;;;;;;4.41;2.08;;;;;;;23.10;62.85;100443.30;460325;114;922955;-62
2021/06/17 04:13:17;;;;;;;3.21;1.86;;;;;;;23.13;62.71;100453.81;460983;114;922494;-63
2021/06/17 04:14:22;;;;;;;4.69;1.90;;;;;;;23.15;62.49;100446.00;460048;114;922567;-64
2021/06/17 04:15:28;;;;;;;4.31;1.91;;;;;;;23.17;62.34;100449.29;460184;114;922537;-64
2021/06/17 04:16:34;;;;;;;2.63;2.19;;;;;;;23.19;62.29;100455.39;461039;114;924427;-63
2021/06/17 04:17:40;;;;;;;2.84;2.13;;;;;;;23.20;62.29;100462.61;459825;114;922676;-64
2021/06/17 04:18:46;;;;;;;7.23;2.26;;;;;;;23.22;62.25;100469.51;459286;114;924829;-63
2021/06/17 04:19:53;;;;;;;1.93;1.82;;;;;;;23.24;62.27;100466.44;459057;114;922528;-63
2021/06/17 04:20:59;;;;;;;3.38;2.11;;;;;;;23.25;62.38;100471.70;460014;114;924533;-64
2021/06/17 04:22:07;;;;;;;2.27;2.02;;;;;;;23.26;62.39;100480.88;460159;114;925919;-64
2021/06/17 04:23:14;;;;;;;2.66;2.04;;;;;;;23.25;62.46;100490.35;461435;114;922792;-62
2021/06/17 04:24:24;;;;;;;3.37;1.75;;;;;;;23.26;62.45;100497.58;460260;114;924553;-61
2021/06/17 04:25:28;;;;;;;3.54;1.81;;;;;;;23.26;62.39;100501.19;460094;114;925456;-64
2021/06/17 04:26:35;;;;;;;3.91;2.38;;;;;;;23.27;62.37;100511.16;457424;114;926169;-64
2021/06/17 04:27:43;;;;;;;3.93;2.37;;;;;;;23.27;62.35;100511.16;459740;114;925728;-63
2021/06/17 04:28:48;;;;;;;3.39;2.17;;;;;;;23.27;62.40;100513.11;461471;114;923946;-64
2021/06/17 04:29:53;;;;;;;7.97;2.23;;;;;;;23.27;62.38;100513.11;459437;114;925842;-62
2021/06/17 04:30:58;;;;;;;3.66;2.27;;;;;;;23.27;62.46;100513.11;460920;114;925359;-64
2021/06/17 04:32:03;;;;;;;4.57;2.44;;;;;;;23.25;62.74;100513.44;458789;114;925919;-65
2021/06/17 04:33:10;;;;;;;4.16;2.29;;;;;;;23.26;62.83;100525.39;460574;114;923928;-63
2021/06/17 04:34:15;;;;;;;6.27;2.46;;;;;;;23.24;62.85;100505.38;460334;114;931875;-63
2021/06/17 04:35:22;;;;;;;5.84;2.16;;;;;;;23.23;63.08;100510.12;459630;114;924092;-63
2021/06/17 04:36:28;;;;;;;4.61;2.53;;;;;;;23.23;63.08;100514.85;459899;114;924492;-62
2021/06/17 04:37:33;;;;;;;3.30;2.19;;;;;;;23.23;62.98;100506.51;459870;114;924066;-63
2021/06/17 04:38:38;;;;;;;6.62;1.88;;;;;;;23.25;62.84;100512.61;461308;114;925393;-62
2021/06/17 04:39:43;;;;;;;5.66;2.61;;;;;;;23.25;62.76;100507.05;459899;114;924520;-64
2021/06/17 04:40:50;;;;;;;7.71;1.99;;;;;;;23.27;62.63;100504.77;459700;114;924497;-64
2021/06/17 04:41:56;;;;;;;5.03;2.25;;;;;;;23.29;62.37;100520.05;460549;114;925391;-64
2021/06/17 04:43:00;;;;;;;3.42;2.22;;;;;;;23.31;62.10;100516.97;461220;114;924056;-62
2021/06/17 04:44:05;;;;;;;5.22;2.49;;;;;;;23.34;61.92;100512.74;461107;114;922508;-63
2021/06/17 04:45:10;;;;;;;4.58;2.13;;;;;;;23.36;61.71;100525.24;459670;114;932687;-63
2021/06/17 04:46:17;;;;;;;2.83;2.02;;;;;;;23.39;61.61;100518.23;457759;114;922680;-63
2021/06/17 04:47:23;;;;;;;3.07;2.23;;;;;;;23.40;61.60;100512.38;460305;114;923925;-63
2021/06/17 04:48:33;;;;;;;4.61;2.19;;;;;;;23.43;61.55;100530.44;461024;114;922832;-63
2021/06/17 04:49:36;;;;;;;6.28;2.29;;;;;;;23.45;61.50;100525.37;460109;114;923932;-64
2021/06/17 04:50:42;;;;;;;3.41;2.30;;;;;;;23.46;61.37;100527.90;459571;114;923976;-64
2021/06/17 04:51:47;;;;;;;3.71;2.04;;;;;;;23.50;61.34;100528.11;460291;114;924109;-63
2021/06/17 04:52:58;;;;;;;10.35;2.81;;;;;;;23.51;61.33;100530.59;460134;114;925665;-63
2021/06/17 04:54:08;;;;;;;3.52;2.44;;;;;;;23.52;61.55;100526.69;459726;114;932730;-63
2021/06/17 04:55:13;;;;;;;6.13;5.49;;;;;;;23.54;61.50;100529.19;459814;114;922696;-63
2021/06/17 04:56:17;;;;;;;6.24;3.03;;;;;;;23.54;61.38;100529.19;457379;114;926176;-62
2021/06/17 04:57:22;;;;;;;5.90;4.26;;;;;;;23.57;61.43;100540.53;458933;114;923239;-65
2021/06/17 04:58:26;;;;;;;4.38;3.36;;;;;;;23.60;61.29;100537.12;460951;114;924414;-64
2021/06/17 04:59:30;;;;;;;6.56;2.58;;;;;;;23.61;61.28;100549.92;461626;114;922723;-61
2021/06/17 05:00:34;;;;;;;6.16;2.98;;;;;;;23.64;61.15;100549.33;457030;114;930551;-62
2021/06/17 05:01:40;;;;;;;6.28;2.92;;;;;;;23.65;61.07;100550.96;460149;114;922820;-63
2021/06/17 05:02:44;;;;;;;4.02;2.37;;;;;;;23.68;60.95;100560.68;458693;114;922658;-63
2021/06/17 05:03:48;;;;;;;4.53;2.86;;;;;;;23.69;60.77;100554.82;460908;114;922620;-62
2021/06/17 05:04:52;;;;;;;4.87;2.94;;;;;;;23.71;60.66;100564.83;460184;114;922558;-64
2021/06/17 05:05:58;;;;;;;7.15;2.58;;;;;;;23.73;60.69;100580.09;459184;114;930937;-64
2021/06/17 05:10:54;;;;;;;9.28;2.49;;;;;;;23.73;60.96;100601.53;462764;114;922596;-63